sensor_id;sensor_type;location;lat;lon;timestamp;temperature;humidity
17697;DHT22;8967;47.984;7.842;2023-02-28T00:00:20;2.70;71.10
17697;DHT22;8967;47.984;7.842;2023-02-28T00:02:49;2.70;70.50
17697;DHT22;8967;47.984;7.842;2023-02-28T00:05:18;2.60;70.70
17697;DHT22;8967;47.984;7.842;2023-02-28T00:07:46;2.60;70.80
17697;DHT22;8967;47.984;7.842;2023-02-28T00:10:16;2.60;70.90
17697;DHT22;8967;47.984;7.842;2023-02-28T00:12:47;2.60;71.20
17697;DHT22;8967;47.984;7.842;2023-02-28T00:15:14;2.60;71.20
17697;DHT22;8967;47.984;7.842;2023-02-28T00:17:41;2.60;71.30
17697;DHT22;8967;47.984;7.842;2023-02-28T00:20:11;2.60;71.40
17697;DHT22;8967;47.984;7.842;2023-02-28T00:22:43;2.60;71.70
17697;DHT22;8967;47.984;7.842;2023-02-28T00:25:13;2.60;71.50
17697;DHT22;8967;47.984;7.842;2023-02-28T00:27:41;2.60;72.10
17697;DHT22;8967;47.984;7.842;2023-02-28T00:30:12;2.60;71.60
17697;DHT22;8967;47.984;7.842;2023-02-28T00:32:39;2.60;71.70
17697;DHT22;8967;47.984;7.842;2023-02-28T00:35:07;2.60;71.60
17697;DHT22;8967;47.984;7.842;2023-02-28T00:37:35;2.60;71.80
17697;DHT22;8967;47.984;7.842;2023-02-28T00:40:02;2.70;71.70
17697;DHT22;8967;47.984;7.842;2023-02-28T00:42:34;2.60;71.30
17697;DHT22;8967;47.984;7.842;2023-02-28T00:45:01;2.70;71.30
17697;DHT22;8967;47.984;7.842;2023-02-28T00:47:31;2.60;71.40
17697;DHT22;8967;47.984;7.842;2023-02-28T00:50:00;2.60;71.60
17697;DHT22;8967;47.984;7.842;2023-02-28T00:52:27;2.70;71.60
17697;DHT22;8967;47.984;7.842;2023-02-28T00:54:55;2.70;71.60
17697;DHT22;8967;47.984;7.842;2023-02-28T00:57:24;2.70;71.80
17697;DHT22;8967;47.984;7.842;2023-02-28T00:59:51;2.60;71.70
17697;DHT22;8967;47.984;7.842;2023-02-28T01:02:20;2.70;72.00
17697;DHT22;8967;47.984;7.842;2023-02-28T01:04:49;2.60;72.00
17697;DHT22;8967;47.984;7.842;2023-02-28T01:07:16;2.60;72.00
17697;DHT22;8967;47.984;7.842;2023-02-28T01:09:46;2.60;72.00
17697;DHT22;8967;47.984;7.842;2023-02-28T01:12:12;2.70;72.10
17697;DHT22;8967;47.984;7.842;2023-02-28T01:14:39;2.60;72.10
17697;DHT22;8967;47.984;7.842;2023-02-28T01:17:07;2.60;72.10
17697;DHT22;8967;47.984;7.842;2023-02-28T01:19:34;2.60;72.10
17697;DHT22;8967;47.984;7.842;2023-02-28T01:22:04;2.60;72.10
17697;DHT22;8967;47.984;7.842;2023-02-28T01:24:34;2.70;72.20
17697;DHT22;8967;47.984;7.842;2023-02-28T01:27:01;2.70;72.40
17697;DHT22;8967;47.984;7.842;2023-02-28T01:29:27;2.60;72.20
17697;DHT22;8967;47.984;7.842;2023-02-28T01:31:57;2.70;72.60
17697;DHT22;8967;47.984;7.842;2023-02-28T01:34:25;2.60;72.60
17697;DHT22;8967;47.984;7.842;2023-02-28T01:36:51;2.60;72.60
17697;DHT22;8967;47.984;7.842;2023-02-28T01:39:22;2.60;72.90
17697;DHT22;8967;47.984;7.842;2023-02-28T01:41:49;2.60;73.00
17697;DHT22;8967;47.984;7.842;2023-02-28T01:44:57;2.60;73.30
17697;DHT22;8967;47.984;7.842;2023-02-28T01:47:27;2.60;73.10
17697;DHT22;8967;47.984;7.842;2023-02-28T01:49:57;2.60;73.40
17697;DHT22;8967;47.984;7.842;2023-02-28T01:52:24;2.60;73.60
17697;DHT22;8967;47.984;7.842;2023-02-28T01:54:56;2.60;73.60
17697;DHT22;8967;47.984;7.842;2023-02-28T01:57:27;2.60;73.40
17697;DHT22;8967;47.984;7.842;2023-02-28T01:59:59;2.60;73.50
17697;DHT22;8967;47.984;7.842;2023-02-28T02:02:27;2.60;73.40
17697;DHT22;8967;47.984;7.842;2023-02-28T02:04:58;2.60;73.40
17697;DHT22;8967;47.984;7.842;2023-02-28T02:07:31;2.60;73.50
17697;DHT22;8967;47.984;7.842;2023-02-28T02:10:05;2.60;73.60
17697;DHT22;8967;47.984;7.842;2023-02-28T02:15:28;2.60;73.80
17697;DHT22;8967;47.984;7.842;2023-02-28T02:18:01;2.60;73.90
17697;DHT22;8967;47.984;7.842;2023-02-28T02:23:45;2.60;74.70
17697;DHT22;8967;47.984;7.842;2023-02-28T02:26:44;2.60;73.90
17697;DHT22;8967;47.984;7.842;2023-02-28T02:29:27;2.60;74.10
17697;DHT22;8967;47.984;7.842;2023-02-28T02:32:09;2.60;74.30
17697;DHT22;8967;47.984;7.842;2023-02-28T02:34:52;2.60;74.10
17697;DHT22;8967;47.984;7.842;2023-02-28T02:37:29;2.60;74.30
17697;DHT22;8967;47.984;7.842;2023-02-28T02:40:03;2.60;74.30
17697;DHT22;8967;47.984;7.842;2023-02-28T02:42:40;2.60;74.20
17697;DHT22;8967;47.984;7.842;2023-02-28T02:45:11;2.50;74.40
17697;DHT22;8967;47.984;7.842;2023-02-28T02:47:41;2.60;74.60
17697;DHT22;8967;47.984;7.842;2023-02-28T02:50:14;2.50;74.70
17697;DHT22;8967;47.984;7.842;2023-02-28T02:52:47;2.60;74.70
17697;DHT22;8967;47.984;7.842;2023-02-28T02:55:17;2.60;74.70
17697;DHT22;8967;47.984;7.842;2023-02-28T02:57:48;2.60;74.80
17697;DHT22;8967;47.984;7.842;2023-02-28T03:00:19;2.60;74.80
17697;DHT22;8967;47.984;7.842;2023-02-28T03:02:49;2.60;74.80
17697;DHT22;8967;47.984;7.842;2023-02-28T03:05:23;2.60;74.70
17697;DHT22;8967;47.984;7.842;2023-02-28T03:07:54;2.60;74.70
17697;DHT22;8967;47.984;7.842;2023-02-28T03:10:37;2.60;74.70
17697;DHT22;8967;47.984;7.842;2023-02-28T03:13:38;2.50;74.90
17697;DHT22;8967;47.984;7.842;2023-02-28T03:16:23;2.60;75.10
17697;DHT22;8967;47.984;7.842;2023-02-28T03:19:03;2.50;75.00
17697;DHT22;8967;47.984;7.842;2023-02-28T03:21:36;2.50;75.00
17697;DHT22;8967;47.984;7.842;2023-02-28T03:24:10;2.50;75.10
17697;DHT22;8967;47.984;7.842;2023-02-28T03:26:43;2.50;75.20
17697;DHT22;8967;47.984;7.842;2023-02-28T03:29:15;2.50;75.10
17697;DHT22;8967;47.984;7.842;2023-02-28T03:31:50;2.50;75.10
17697;DHT22;8967;47.984;7.842;2023-02-28T03:34:24;2.50;75.20
17697;DHT22;8967;47.984;7.842;2023-02-28T03:36:59;2.50;75.40
17697;DHT22;8967;47.984;7.842;2023-02-28T03:39:35;2.50;75.40
17697;DHT22;8967;47.984;7.842;2023-02-28T03:42:06;2.50;75.50
17697;DHT22;8967;47.984;7.842;2023-02-28T03:44:40;2.50;75.30
17697;DHT22;8967;47.984;7.842;2023-02-28T03:47:11;2.50;75.50
17697;DHT22;8967;47.984;7.842;2023-02-28T03:49:42;2.50;75.90
17697;DHT22;8967;47.984;7.842;2023-02-28T03:52:14;2.50;76.00
17697;DHT22;8967;47.984;7.842;2023-02-28T03:54:43;2.50;76.20
17697;DHT22;8967;47.984;7.842;2023-02-28T03:57:15;2.40;76.30
17697;DHT22;8967;47.984;7.842;2023-02-28T03:59:49;2.50;76.50
17697;DHT22;8967;47.984;7.842;2023-02-28T04:02:18;2.40;76.70
17697;DHT22;8967;47.984;7.842;2023-02-28T04:04:45;2.40;76.90
17697;DHT22;8967;47.984;7.842;2023-02-28T04:07:15;2.40;77.00
17697;DHT22;8967;47.984;7.842;2023-02-28T04:09:42;2.40;77.00
17697;DHT22;8967;47.984;7.842;2023-02-28T04:12:11;2.40;77.10
17697;DHT22;8967;47.984;7.842;2023-02-28T04:14:38;2.40;77.20
17697;DHT22;8967;47.984;7.842;2023-02-28T04:17:05;2.40;77.40
17697;DHT22;8967;47.984;7.842;2023-02-28T04:19:32;2.40;77.20
17697;DHT22;8967;47.984;7.842;2023-02-28T04:21:59;2.40;77.30
17697;DHT22;8967;47.984;7.842;2023-02-28T04:24:28;2.40;77.30
17697;DHT22;8967;47.984;7.842;2023-02-28T04:26:56;2.40;77.30
17697;DHT22;8967;47.984;7.842;2023-02-28T04:29:25;2.40;77.40
17697;DHT22;8967;47.984;7.842;2023-02-28T04:31:52;2.30;77.40
17697;DHT22;8967;47.984;7.842;2023-02-28T04:34:20;2.30;77.80
17697;DHT22;8967;47.984;7.842;2023-02-28T04:36:49;2.30;77.90
17697;DHT22;8967;47.984;7.842;2023-02-28T04:39:16;2.30;78.10
17697;DHT22;8967;47.984;7.842;2023-02-28T04:41:45;2.30;78.50
17697;DHT22;8967;47.984;7.842;2023-02-28T04:44:12;2.30;78.90
17697;DHT22;8967;47.984;7.842;2023-02-28T04:46:39;2.30;79.40
17697;DHT22;8967;47.984;7.842;2023-02-28T04:49:07;2.30;79.70
17697;DHT22;8967;47.984;7.842;2023-02-28T04:51:37;2.30;80.30
17697;DHT22;8967;47.984;7.842;2023-02-28T04:54:04;2.30;80.50
17697;DHT22;8967;47.984;7.842;2023-02-28T04:56:31;2.30;80.90
17697;DHT22;8967;47.984;7.842;2023-02-28T04:59:01;2.20;81.10
17697;DHT22;8967;47.984;7.842;2023-02-28T05:01:29;2.20;81.40
17697;DHT22;8967;47.984;7.842;2023-02-28T05:03:58;2.20;81.40
17697;DHT22;8967;47.984;7.842;2023-02-28T05:06:27;2.20;81.80
17697;DHT22;8967;47.984;7.842;2023-02-28T05:08:54;2.10;82.00
17697;DHT22;8967;47.984;7.842;2023-02-28T05:11:23;2.10;82.00
17697;DHT22;8967;47.984;7.842;2023-02-28T05:13:53;2.10;82.30
17697;DHT22;8967;47.984;7.842;2023-02-28T05:16:22;2.10;82.70
17697;DHT22;8967;47.984;7.842;2023-02-28T05:18:48;2.00;82.80
17697;DHT22;8967;47.984;7.842;2023-02-28T05:21:24;2.00;83.00
17697;DHT22;8967;47.984;7.842;2023-02-28T05:23:51;2.00;83.00
17697;DHT22;8967;47.984;7.842;2023-02-28T05:26:18;2.00;83.40
17697;DHT22;8967;47.984;7.842;2023-02-28T05:28:45;2.00;83.70
17697;DHT22;8967;47.984;7.842;2023-02-28T05:31:13;1.90;84.10
17697;DHT22;8967;47.984;7.842;2023-02-28T05:33:41;1.90;84.40
17697;DHT22;8967;47.984;7.842;2023-02-28T05:36:10;1.90;84.60
17697;DHT22;8967;47.984;7.842;2023-02-28T05:38:37;1.90;84.80
17697;DHT22;8967;47.984;7.842;2023-02-28T05:41:07;1.90;85.00
17697;DHT22;8967;47.984;7.842;2023-02-28T05:43:35;1.90;85.10
17697;DHT22;8967;47.984;7.842;2023-02-28T05:46:05;1.90;85.20
17697;DHT22;8967;47.984;7.842;2023-02-28T05:48:33;1.90;85.40
17697;DHT22;8967;47.984;7.842;2023-02-28T05:51:01;1.90;85.80
17697;DHT22;8967;47.984;7.842;2023-02-28T05:53:29;1.90;86.30
17697;DHT22;8967;47.984;7.842;2023-02-28T05:55:56;1.80;86.40
17697;DHT22;8967;47.984;7.842;2023-02-28T05:58:23;1.80;87.00
17697;DHT22;8967;47.984;7.842;2023-02-28T06:00:54;1.80;87.70
17697;DHT22;8967;47.984;7.842;2023-02-28T06:03:21;1.80;87.90
17697;DHT22;8967;47.984;7.842;2023-02-28T06:05:48;1.70;88.30
17697;DHT22;8967;47.984;7.842;2023-02-28T06:08:17;1.70;89.00
17697;DHT22;8967;47.984;7.842;2023-02-28T06:10:44;1.70;89.30
17697;DHT22;8967;47.984;7.842;2023-02-28T06:13:11;1.70;89.50
17697;DHT22;8967;47.984;7.842;2023-02-28T06:15:38;1.70;90.00
17697;DHT22;8967;47.984;7.842;2023-02-28T06:18:06;1.60;90.00
17697;DHT22;8967;47.984;7.842;2023-02-28T06:20:32;1.60;90.20
17697;DHT22;8967;47.984;7.842;2023-02-28T06:23:00;1.60;90.20
17697;DHT22;8967;47.984;7.842;2023-02-28T06:25:30;1.50;90.30
17697;DHT22;8967;47.984;7.842;2023-02-28T06:27:57;1.50;90.40
17697;DHT22;8967;47.984;7.842;2023-02-28T06:30:24;1.50;90.60
17697;DHT22;8967;47.984;7.842;2023-02-28T06:32:52;1.50;90.70
17697;DHT22;8967;47.984;7.842;2023-02-28T06:35:19;1.50;90.80
17697;DHT22;8967;47.984;7.842;2023-02-28T06:37:46;1.50;90.80
17697;DHT22;8967;47.984;7.842;2023-02-28T06:40:13;1.50;90.80
17697;DHT22;8967;47.984;7.842;2023-02-28T06:42:42;1.50;90.80
17697;DHT22;8967;47.984;7.842;2023-02-28T06:45:10;1.50;90.90
17697;DHT22;8967;47.984;7.842;2023-02-28T06:47:38;1.50;90.90
17697;DHT22;8967;47.984;7.842;2023-02-28T06:50:08;1.50;90.90
17697;DHT22;8967;47.984;7.842;2023-02-28T06:52:35;1.50;91.00
17697;DHT22;8967;47.984;7.842;2023-02-28T06:55:03;1.50;91.10
17697;DHT22;8967;47.984;7.842;2023-02-28T06:57:31;1.50;91.00
17697;DHT22;8967;47.984;7.842;2023-02-28T07:00:01;1.50;91.00
17697;DHT22;8967;47.984;7.842;2023-02-28T07:02:28;1.50;91.00
17697;DHT22;8967;47.984;7.842;2023-02-28T07:04:55;1.50;91.20
17697;DHT22;8967;47.984;7.842;2023-02-28T07:07:22;1.50;91.20
17697;DHT22;8967;47.984;7.842;2023-02-28T07:09:49;1.50;91.30
17697;DHT22;8967;47.984;7.842;2023-02-28T07:12:16;1.50;91.40
17697;DHT22;8967;47.984;7.842;2023-02-28T07:14:43;1.50;91.50
17697;DHT22;8967;47.984;7.842;2023-02-28T07:17:12;1.50;91.40
17697;DHT22;8967;47.984;7.842;2023-02-28T07:19:39;1.50;91.40
17697;DHT22;8967;47.984;7.842;2023-02-28T07:22:06;1.50;91.40
17697;DHT22;8967;47.984;7.842;2023-02-28T07:24:35;1.50;91.50
17697;DHT22;8967;47.984;7.842;2023-02-28T07:27:03;1.50;91.40
17697;DHT22;8967;47.984;7.842;2023-02-28T07:29:30;1.50;91.40
17697;DHT22;8967;47.984;7.842;2023-02-28T07:31:57;1.50;91.50
17697;DHT22;8967;47.984;7.842;2023-02-28T07:34:25;1.50;91.50
17697;DHT22;8967;47.984;7.842;2023-02-28T07:36:53;1.60;91.60
17697;DHT22;8967;47.984;7.842;2023-02-28T07:39:20;1.60;91.50
17697;DHT22;8967;47.984;7.842;2023-02-28T07:41:48;1.60;91.60
17697;DHT22;8967;47.984;7.842;2023-02-28T07:44:15;1.60;91.60
17697;DHT22;8967;47.984;7.842;2023-02-28T07:46:44;1.60;91.40
17697;DHT22;8967;47.984;7.842;2023-02-28T07:49:10;1.60;91.50
17697;DHT22;8967;47.984;7.842;2023-02-28T07:51:39;1.70;91.60
17697;DHT22;8967;47.984;7.842;2023-02-28T07:54:06;1.70;91.50
17697;DHT22;8967;47.984;7.842;2023-02-28T07:56:33;1.70;91.70
17697;DHT22;8967;47.984;7.842;2023-02-28T07:59:00;1.80;91.90
17697;DHT22;8967;47.984;7.842;2023-02-28T08:01:30;1.80;91.80
17697;DHT22;8967;47.984;7.842;2023-02-28T08:03:57;1.80;91.70
17697;DHT22;8967;47.984;7.842;2023-02-28T08:06:26;1.80;91.80
17697;DHT22;8967;47.984;7.842;2023-02-28T08:08:54;1.90;91.70
17697;DHT22;8967;47.984;7.842;2023-02-28T08:11:22;1.90;91.70
17697;DHT22;8967;47.984;7.842;2023-02-28T08:13:49;1.90;91.50
17697;DHT22;8967;47.984;7.842;2023-02-28T08:16:16;1.90;91.60
17697;DHT22;8967;47.984;7.842;2023-02-28T08:18:48;2.00;91.70
17697;DHT22;8967;47.984;7.842;2023-02-28T08:21:14;2.00;91.60
17697;DHT22;8967;47.984;7.842;2023-02-28T08:23:41;2.10;91.50
17697;DHT22;8967;47.984;7.842;2023-02-28T08:26:12;2.10;91.20
17697;DHT22;8967;47.984;7.842;2023-02-28T08:28:39;2.20;91.10
17697;DHT22;8967;47.984;7.842;2023-02-28T08:31:10;2.20;91.00
17697;DHT22;8967;47.984;7.842;2023-02-28T08:33:39;2.20;91.00
17697;DHT22;8967;47.984;7.842;2023-02-28T08:36:08;2.30;90.80
17697;DHT22;8967;47.984;7.842;2023-02-28T08:38:35;2.30;90.60
17697;DHT22;8967;47.984;7.842;2023-02-28T08:41:06;2.30;90.40
17697;DHT22;8967;47.984;7.842;2023-02-28T08:43:36;2.40;90.50
17697;DHT22;8967;47.984;7.842;2023-02-28T08:46:04;2.40;90.50
17697;DHT22;8967;47.984;7.842;2023-02-28T08:48:33;2.50;90.60
17697;DHT22;8967;47.984;7.842;2023-02-28T08:51:04;2.50;90.40
17697;DHT22;8967;47.984;7.842;2023-02-28T08:53:32;2.60;90.40
17697;DHT22;8967;47.984;7.842;2023-02-28T08:56:00;2.60;90.00
17697;DHT22;8967;47.984;7.842;2023-02-28T08:58:28;2.70;89.30
17697;DHT22;8967;47.984;7.842;2023-02-28T09:00:56;2.80;88.40
17697;DHT22;8967;47.984;7.842;2023-02-28T09:03:23;2.90;88.10
17697;DHT22;8967;47.984;7.842;2023-02-28T09:05:54;3.00;88.20
17697;DHT22;8967;47.984;7.842;2023-02-28T09:08:22;3.00;86.80
17697;DHT22;8967;47.984;7.842;2023-02-28T09:10:52;3.10;83.80
17697;DHT22;8967;47.984;7.842;2023-02-28T09:13:20;3.20;84.50
17697;DHT22;8967;47.984;7.842;2023-02-28T09:15:47;3.30;84.50
17697;DHT22;8967;47.984;7.842;2023-02-28T09:18:15;3.30;82.90
17697;DHT22;8967;47.984;7.842;2023-02-28T09:20:43;3.40;82.50
17697;DHT22;8967;47.984;7.842;2023-02-28T09:23:11;3.40;82.30
17697;DHT22;8967;47.984;7.842;2023-02-28T09:25:45;3.40;82.40
17697;DHT22;8967;47.984;7.842;2023-02-28T09:28:15;3.40;81.30
17697;DHT22;8967;47.984;7.842;2023-02-28T09:30:44;3.50;81.40
17697;DHT22;8967;47.984;7.842;2023-02-28T09:33:12;3.50;81.20
17697;DHT22;8967;47.984;7.842;2023-02-28T09:35:40;3.50;82.10
17697;DHT22;8967;47.984;7.842;2023-02-28T09:38:08;3.60;80.40
17697;DHT22;8967;47.984;7.842;2023-02-28T09:40:37;3.60;81.10
17697;DHT22;8967;47.984;7.842;2023-02-28T09:43:05;3.60;81.10
17697;DHT22;8967;47.984;7.842;2023-02-28T09:45:37;3.60;80.40
17697;DHT22;8967;47.984;7.842;2023-02-28T09:48:11;3.60;80.10
17697;DHT22;8967;47.984;7.842;2023-02-28T09:50:44;3.60;79.70
17697;DHT22;8967;47.984;7.842;2023-02-28T09:53:18;3.70;80.30
17697;DHT22;8967;47.984;7.842;2023-02-28T09:55:48;3.70;79.90
17697;DHT22;8967;47.984;7.842;2023-02-28T09:58:20;3.70;79.90
17697;DHT22;8967;47.984;7.842;2023-02-28T10:00:56;3.80;80.40
17697;DHT22;8967;47.984;7.842;2023-02-28T10:03:32;3.80;79.50
17697;DHT22;8967;47.984;7.842;2023-02-28T10:06:08;3.80;79.00
17697;DHT22;8967;47.984;7.842;2023-02-28T10:08:42;3.80;79.00
17697;DHT22;8967;47.984;7.842;2023-02-28T10:11:14;3.90;78.70
17697;DHT22;8967;47.984;7.842;2023-02-28T10:13:51;3.90;78.60
17697;DHT22;8967;47.984;7.842;2023-02-28T10:16:26;3.80;79.00
17697;DHT22;8967;47.984;7.842;2023-02-28T10:18:59;3.80;78.80
17697;DHT22;8967;47.984;7.842;2023-02-28T10:21:36;3.80;79.50
17697;DHT22;8967;47.984;7.842;2023-02-28T10:24:10;3.80;79.40
17697;DHT22;8967;47.984;7.842;2023-02-28T10:26:43;3.80;79.40
17697;DHT22;8967;47.984;7.842;2023-02-28T10:29:11;3.80;79.50
17697;DHT22;8967;47.984;7.842;2023-02-28T10:31:39;3.80;79.20
17697;DHT22;8967;47.984;7.842;2023-02-28T10:34:06;3.90;78.70
17697;DHT22;8967;47.984;7.842;2023-02-28T10:36:35;3.80;79.40
17697;DHT22;8967;47.984;7.842;2023-02-28T10:39:35;3.80;79.70
17697;DHT22;8967;47.984;7.842;2023-02-28T10:42:04;3.80;79.00
17697;DHT22;8967;47.984;7.842;2023-02-28T10:44:32;3.80;79.40
17697;DHT22;8967;47.984;7.842;2023-02-28T10:46:59;3.80;79.20
17697;DHT22;8967;47.984;7.842;2023-02-28T10:49:27;3.90;79.80
17697;DHT22;8967;47.984;7.842;2023-02-28T10:51:58;3.90;79.00
17697;DHT22;8967;47.984;7.842;2023-02-28T10:54:29;3.90;78.90
17697;DHT22;8967;47.984;7.842;2023-02-28T10:57:07;3.90;79.40
17697;DHT22;8967;47.984;7.842;2023-02-28T10:59:34;3.90;79.20
17697;DHT22;8967;47.984;7.842;2023-02-28T11:02:01;4.00;79.00
17697;DHT22;8967;47.984;7.842;2023-02-28T11:04:34;4.00;78.60
17697;DHT22;8967;47.984;7.842;2023-02-28T11:07:17;4.00;79.00
17697;DHT22;8967;47.984;7.842;2023-02-28T11:09:46;4.10;78.90
17697;DHT22;8967;47.984;7.842;2023-02-28T11:12:21;4.10;78.90
17697;DHT22;8967;47.984;7.842;2023-02-28T11:14:50;4.10;78.90
17697;DHT22;8967;47.984;7.842;2023-02-28T11:17:20;4.10;78.70
17697;DHT22;8967;47.984;7.842;2023-02-28T11:19:51;4.10;78.50
17697;DHT22;8967;47.984;7.842;2023-02-28T11:22:23;4.10;79.60
17697;DHT22;8967;47.984;7.842;2023-02-28T11:24:54;4.10;79.60
17697;DHT22;8967;47.984;7.842;2023-02-28T11:27:45;4.20;79.90
17697;DHT22;8967;47.984;7.842;2023-02-28T11:30:25;4.20;79.20
17697;DHT22;8967;47.984;7.842;2023-02-28T11:32:52;4.20;79.20
17697;DHT22;8967;47.984;7.842;2023-02-28T11:35:24;4.20;79.60
17697;DHT22;8967;47.984;7.842;2023-02-28T11:37:53;4.30;78.60
17697;DHT22;8967;47.984;7.842;2023-02-28T11:40:30;4.30;78.60
17697;DHT22;8967;47.984;7.842;2023-02-28T11:43:06;4.30;77.60
17697;DHT22;8967;47.984;7.842;2023-02-28T11:45:45;4.30;78.90
17697;DHT22;8967;47.984;7.842;2023-02-28T11:48:20;4.20;78.00
17697;DHT22;8967;47.984;7.842;2023-02-28T11:51:00;4.20;77.90
17697;DHT22;8967;47.984;7.842;2023-02-28T11:53:47;4.20;78.40
17697;DHT22;8967;47.984;7.842;2023-02-28T11:56:22;4.20;78.50
17697;DHT22;8967;47.984;7.842;2023-02-28T11:59:04;4.20;78.60
17697;DHT22;8967;47.984;7.842;2023-02-28T12:01:50;4.10;78.50
17697;DHT22;8967;47.984;7.842;2023-02-28T12:04:27;4.10;78.90
17697;DHT22;8967;47.984;7.842;2023-02-28T12:07:04;4.10;80.10
17697;DHT22;8967;47.984;7.842;2023-02-28T12:09:44;4.10;79.50
17697;DHT22;8967;47.984;7.842;2023-02-28T12:12:22;4.20;79.20
17697;DHT22;8967;47.984;7.842;2023-02-28T12:15:02;4.20;79.10
17697;DHT22;8967;47.984;7.842;2023-02-28T12:17:46;4.20;79.40
17697;DHT22;8967;47.984;7.842;2023-02-28T12:20:23;4.20;78.90
17697;DHT22;8967;47.984;7.842;2023-02-28T12:22:59;4.20;79.10
17697;DHT22;8967;47.984;7.842;2023-02-28T12:28:28;4.30;79.00
17697;DHT22;8967;47.984;7.842;2023-02-28T12:30:59;4.30;79.10
17697;DHT22;8967;47.984;7.842;2023-02-28T12:33:32;4.30;78.80
17697;DHT22;8967;47.984;7.842;2023-02-28T12:36:04;4.30;78.70
17697;DHT22;8967;47.984;7.842;2023-02-28T12:38:37;4.30;78.70
17697;DHT22;8967;47.984;7.842;2023-02-28T12:41:12;4.30;79.10
17697;DHT22;8967;47.984;7.842;2023-02-28T12:43:43;4.30;79.30
17697;DHT22;8967;47.984;7.842;2023-02-28T12:46:14;4.40;79.30
17697;DHT22;8967;47.984;7.842;2023-02-28T12:48:46;4.40;78.80
17697;DHT22;8967;47.984;7.842;2023-02-28T12:51:15;4.40;79.00
17697;DHT22;8967;47.984;7.842;2023-02-28T12:53:56;4.40;79.70
17697;DHT22;8967;47.984;7.842;2023-02-28T12:56:32;4.40;79.20
17697;DHT22;8967;47.984;7.842;2023-02-28T12:59:07;4.40;78.80
17697;DHT22;8967;47.984;7.842;2023-02-28T13:05:07;4.40;79.00
17697;DHT22;8967;47.984;7.842;2023-02-28T13:07:55;4.40;79.40
17697;DHT22;8967;47.984;7.842;2023-02-28T13:10:41;4.50;79.50
17697;DHT22;8967;47.984;7.842;2023-02-28T13:13:16;4.60;78.70
17697;DHT22;8967;47.984;7.842;2023-02-28T13:15:58;4.60;78.50
17697;DHT22;8967;47.984;7.842;2023-02-28T13:18:34;4.60;78.90
17697;DHT22;8967;47.984;7.842;2023-02-28T13:21:04;4.60;79.30
17697;DHT22;8967;47.984;7.842;2023-02-28T13:24:00;4.60;79.40
17697;DHT22;8967;47.984;7.842;2023-02-28T13:29:36;4.60;79.30
17697;DHT22;8967;47.984;7.842;2023-02-28T13:32:35;4.60;79.30
17697;DHT22;8967;47.984;7.842;2023-02-28T13:38:23;4.70;79.00
17697;DHT22;8967;47.984;7.842;2023-02-28T13:40:51;4.70;79.00
17697;DHT22;8967;47.984;7.842;2023-02-28T13:43:18;4.70;78.90
17697;DHT22;8967;47.984;7.842;2023-02-28T13:46:12;4.70;78.90
17697;DHT22;8967;47.984;7.842;2023-02-28T13:48:39;4.80;79.20
17697;DHT22;8967;47.984;7.842;2023-02-28T13:51:35;4.80;79.30
17697;DHT22;8967;47.984;7.842;2023-02-28T13:54:16;4.80;79.00
17697;DHT22;8967;47.984;7.842;2023-02-28T13:56:48;4.80;79.00
17697;DHT22;8967;47.984;7.842;2023-02-28T13:59:25;4.90;78.80
17697;DHT22;8967;47.984;7.842;2023-02-28T14:02:13;4.90;79.00
17697;DHT22;8967;47.984;7.842;2023-02-28T14:04:58;4.90;79.00
17697;DHT22;8967;47.984;7.842;2023-02-28T14:07:29;4.90;78.40
17697;DHT22;8967;47.984;7.842;2023-02-28T14:10:02;4.90;78.30
17697;DHT22;8967;47.984;7.842;2023-02-28T14:12:57;5.00;78.30
17697;DHT22;8967;47.984;7.842;2023-02-28T14:15:47;5.00;78.40
17697;DHT22;8967;47.984;7.842;2023-02-28T14:18:31;5.00;78.10
17697;DHT22;8967;47.984;7.842;2023-02-28T14:21:03;5.00;77.40
17697;DHT22;8967;47.984;7.842;2023-02-28T14:23:49;5.00;77.90
17697;DHT22;8967;47.984;7.842;2023-02-28T14:26:33;5.00;77.90
17697;DHT22;8967;47.984;7.842;2023-02-28T14:29:18;5.00;77.50
17697;DHT22;8967;47.984;7.842;2023-02-28T14:31:57;5.10;77.40
17697;DHT22;8967;47.984;7.842;2023-02-28T14:34:41;5.10;77.50
17697;DHT22;8967;47.984;7.842;2023-02-28T14:37:15;5.10;77.60
17697;DHT22;8967;47.984;7.842;2023-02-28T14:39:43;5.10;77.70
17697;DHT22;8967;47.984;7.842;2023-02-28T14:42:30;5.10;77.80
17697;DHT22;8967;47.984;7.842;2023-02-28T14:44:58;5.00;78.10
17697;DHT22;8967;47.984;7.842;2023-02-28T14:47:28;5.00;77.90
17697;DHT22;8967;47.984;7.842;2023-02-28T14:50:02;5.00;77.90
17697;DHT22;8967;47.984;7.842;2023-02-28T14:52:31;5.00;78.40
17697;DHT22;8967;47.984;7.842;2023-02-28T14:55:00;5.00;77.70
17697;DHT22;8967;47.984;7.842;2023-02-28T14:57:31;5.00;77.50
17697;DHT22;8967;47.984;7.842;2023-02-28T15:00:00;5.00;77.40
17697;DHT22;8967;47.984;7.842;2023-02-28T15:02:34;5.00;77.90
17697;DHT22;8967;47.984;7.842;2023-02-28T15:05:20;4.90;78.10
17697;DHT22;8967;47.984;7.842;2023-02-28T15:07:59;4.90;78.10
17697;DHT22;8967;47.984;7.842;2023-02-28T15:10:27;4.90;78.00
17697;DHT22;8967;47.984;7.842;2023-02-28T15:12:57;4.80;78.20
17697;DHT22;8967;47.984;7.842;2023-02-28T15:15:27;4.80;78.40
17697;DHT22;8967;47.984;7.842;2023-02-28T15:18:00;4.80;78.60
17697;DHT22;8967;47.984;7.842;2023-02-28T15:20:32;4.80;78.70
17697;DHT22;8967;47.984;7.842;2023-02-28T15:23:00;4.80;78.50
17697;DHT22;8967;47.984;7.842;2023-02-28T15:25:27;4.80;78.60
17697;DHT22;8967;47.984;7.842;2023-02-28T15:27:56;4.80;78.70
17697;DHT22;8967;47.984;7.842;2023-02-28T15:30:26;4.80;78.80
17697;DHT22;8967;47.984;7.842;2023-02-28T15:33:05;4.70;78.70
17697;DHT22;8967;47.984;7.842;2023-02-28T15:35:35;4.70;78.70
17697;DHT22;8967;47.984;7.842;2023-02-28T15:38:03;4.70;78.90
17697;DHT22;8967;47.984;7.842;2023-02-28T15:40:37;4.70;78.80
17697;DHT22;8967;47.984;7.842;2023-02-28T15:43:06;4.70;78.60
17697;DHT22;8967;47.984;7.842;2023-02-28T15:45:37;4.70;78.60
17697;DHT22;8967;47.984;7.842;2023-02-28T15:48:15;4.80;78.30
17697;DHT22;8967;47.984;7.842;2023-02-28T15:50:50;4.80;78.30
17697;DHT22;8967;47.984;7.842;2023-02-28T15:53:20;4.80;78.80
17697;DHT22;8967;47.984;7.842;2023-02-28T15:56:00;4.70;78.10
17697;DHT22;8967;47.984;7.842;2023-02-28T15:58:28;4.70;78.50
17697;DHT22;8967;47.984;7.842;2023-02-28T16:01:06;4.60;78.70
17697;DHT22;8967;47.984;7.842;2023-02-28T16:03:43;4.60;79.80
17697;DHT22;8967;47.984;7.842;2023-02-28T16:06:33;4.60;78.90
17697;DHT22;8967;47.984;7.842;2023-02-28T16:09:00;4.60;79.00
17697;DHT22;8967;47.984;7.842;2023-02-28T16:11:27;4.60;78.70
17697;DHT22;8967;47.984;7.842;2023-02-28T16:13:56;4.60;78.80
17697;DHT22;8967;47.984;7.842;2023-02-28T16:16:24;4.60;78.90
17697;DHT22;8967;47.984;7.842;2023-02-28T16:18:52;4.60;78.90
17697;DHT22;8967;47.984;7.842;2023-02-28T16:21:20;4.60;78.60
17697;DHT22;8967;47.984;7.842;2023-02-28T16:23:47;4.60;78.80
17697;DHT22;8967;47.984;7.842;2023-02-28T16:26:20;4.60;78.80
17697;DHT22;8967;47.984;7.842;2023-02-28T16:28:48;4.60;79.20
17697;DHT22;8967;47.984;7.842;2023-02-28T16:31:15;4.60;79.30
17697;DHT22;8967;47.984;7.842;2023-02-28T16:33:42;4.60;79.20
17697;DHT22;8967;47.984;7.842;2023-02-28T16:36:13;4.60;79.50
17697;DHT22;8967;47.984;7.842;2023-02-28T16:38:42;4.60;79.60
17697;DHT22;8967;47.984;7.842;2023-02-28T16:41:12;4.60;79.50
17697;DHT22;8967;47.984;7.842;2023-02-28T16:43:43;4.50;79.50
17697;DHT22;8967;47.984;7.842;2023-02-28T16:46:11;4.50;79.50
17697;DHT22;8967;47.984;7.842;2023-02-28T16:48:38;4.50;80.30